createdAt,value
2019-02-02T00:02:46.259Z,20.13
2019-02-02T00:07:50.155Z,17.83
2019-02-02T00:12:54.195Z,18.60
2019-02-02T00:17:58.207Z,16.73
2019-02-02T00:23:02.248Z,18.13
2019-02-02T00:28:06.657Z,18.23
2019-02-02T00:33:10.675Z,19.90
2019-02-02T00:38:14.614Z,18.83
2019-02-02T00:43:18.502Z,19.50
2019-02-02T00:48:22.526Z,21.37
2019-02-02T00:53:26.559Z,17.10
2019-02-02T00:58:30.583Z,18.23
2019-02-02T01:03:34.600Z,20.47
2019-02-02T01:08:38.635Z,25.43
2019-02-02T01:13:42.655Z,21.37
2019-02-02T01:18:46.590Z,22.03
2019-02-02T01:23:51.052Z,19.63
2019-02-02T01:28:55.659Z,13.37
2019-02-02T01:33:59.671Z,18.10
2019-02-02T01:39:05.254Z,22.13
2019-02-02T01:44:09.285Z,26.50
2019-02-02T01:49:13.303Z,21.03
2019-02-02T01:54:17.338Z,25.27
2019-02-02T01:59:21.362Z,24.27
2019-02-02T02:04:25.264Z,22.70
2019-02-02T02:09:29.297Z,22.87
2019-02-02T02:14:33.312Z,26.20
2019-02-02T02:19:37.328Z,28.37
2019-02-02T02:24:41.296Z,28.30
2019-02-02T02:29:45.263Z,32.43
2019-02-02T02:34:49.326Z,30.60
2019-02-02T02:39:53.293Z,32.93
2019-02-02T02:44:57.254Z,36.23
2019-02-02T02:50:01.218Z,40.00
2019-02-02T02:55:07.415Z,29.90
2019-02-02T03:00:20.784Z,32.50
2019-02-02T03:05:24.855Z,31.63
2019-02-02T03:10:28.901Z,42.77
2019-02-02T03:15:32.789Z,37.40
2019-02-02T03:20:36.760Z,40.70
2019-02-02T03:25:40.791Z,30.00
2019-02-02T03:30:44.837Z,43.03
2019-02-02T03:35:48.801Z,40.10
2019-02-02T03:40:52.842Z,35.60
2019-02-02T03:45:56.871Z,32.30
2019-02-02T03:51:01.196Z,36.33
2019-02-02T03:56:05.231Z,26.90
2019-02-02T04:01:09.276Z,33.30
2019-02-02T04:06:13.338Z,30.83
2019-02-02T04:11:17.392Z,34.00
2019-02-02T04:16:21.449Z,28.60
2019-02-02T04:21:25.487Z,31.07
2019-02-02T04:26:29.532Z,31.00
2019-02-02T04:31:33.512Z,30.67
2019-02-02T04:36:37.480Z,30.30
2019-02-02T04:41:41.517Z,26.50
2019-02-02T04:46:45.484Z,24.00
2019-02-02T04:51:49.538Z,28.80
2019-02-02T04:56:53.515Z,25.97
2019-02-02T05:01:57.566Z,30.63
2019-02-02T05:07:01.632Z,22.90
2019-02-02T05:12:05.678Z,32.27
2019-02-02T05:17:10.065Z,24.93
2019-02-02T05:22:14.032Z,29.13
2019-02-02T05:27:18.362Z,25.37
2019-02-02T05:32:22.411Z,27.73
2019-02-02T05:37:26.395Z,23.87
2019-02-02T05:42:30.443Z,23.87
2019-02-02T05:47:34.409Z,24.80
2019-02-02T05:52:38.451Z,27.57
2019-02-02T05:57:42.495Z,24.30
2019-02-02T06:02:46.543Z,22.17
2019-02-02T06:07:50.533Z,26.03
2019-02-02T06:12:54.578Z,25.73
2019-02-02T06:17:58.634Z,22.20
2019-02-02T06:23:04.011Z,27.63
2019-02-02T06:28:08.051Z,25.23
2019-02-02T06:33:12.097Z,25.10
2019-02-02T06:38:16.140Z,31.40
2019-02-02T06:43:20.171Z,30.80
2019-02-02T06:48:24.135Z,25.40
2019-02-02T06:53:28.123Z,19.20
2019-02-02T06:58:32.109Z,26.80
2019-02-02T07:03:36.160Z,25.37
2019-02-02T07:08:40.345Z,31.23
2019-02-02T07:13:44.379Z,28.07
2019-02-02T07:18:48.427Z,27.87
2019-02-02T07:23:52.403Z,27.60
2019-02-02T07:28:56.463Z,27.50
2019-02-02T07:34:00.503Z,26.03
2019-02-02T07:39:07.491Z,30.00
2019-02-02T07:44:11.503Z,32.10
2019-02-02T07:49:15.548Z,24.67
2019-02-02T07:54:19.535Z,32.97
2019-02-02T07:59:23.606Z,26.77
2019-02-02T08:04:27.534Z,28.90
2019-02-02T08:09:31.451Z,34.13
2019-02-02T08:14:35.419Z,31.00
2019-02-02T08:19:39.327Z,31.17
2019-02-02T08:24:43.329Z,29.27
2019-02-02T08:29:47.276Z,36.83
2019-02-02T08:34:51.244Z,28.93
2019-02-02T08:39:55.351Z,34.63
2019-02-02T08:44:59.603Z,41.47
2019-02-02T08:50:04.459Z,32.23
2019-02-02T08:55:08.579Z,32.80
2019-02-02T09:00:15.428Z,40.17
2019-02-02T09:05:20.332Z,40.33
2019-02-02T09:10:26.138Z,42.13
2019-02-02T09:15:30.345Z,33.90
2019-02-02T09:20:34.423Z,39.73
2019-02-02T09:25:38.491Z,36.63
2019-02-02T09:30:42.799Z,36.10
2019-02-02T09:35:46.755Z,41.23
2019-02-02T09:40:50.642Z,39.07
2019-02-02T09:45:54.685Z,39.40
2019-02-02T09:50:58.667Z,39.33
2019-02-02T09:56:02.729Z,40.20
2019-02-02T10:01:06.748Z,50.40
2019-02-02T10:06:10.786Z,52.53
2019-02-02T10:11:14.768Z,49.13
2019-02-02T10:16:18.879Z,46.23
2019-02-02T10:21:22.827Z,43.93
2019-02-02T10:26:26.890Z,45.30
2019-02-02T10:31:39.365Z,49.30
2019-02-02T10:36:36.683Z,50.57
2019-02-02T10:41:40.667Z,47.33
2019-02-02T10:46:44.656Z,56.03
2019-02-02T10:51:49.563Z,45.67
2019-02-02T10:56:53.631Z,55.43
2019-02-02T11:01:57.934Z,56.77
2019-02-02T11:07:03.081Z,48.00
2019-02-02T11:12:07.298Z,58.67
2019-02-02T11:17:11.733Z,59.43
2019-02-02T11:22:15.920Z,65.40
2019-02-02T11:27:20.027Z,61.03
2019-02-02T11:32:24.025Z,56.90
2019-02-02T11:37:28.131Z,62.87
2019-02-02T11:42:32.405Z,55.87
2019-02-02T11:47:36.410Z,61.63
2019-02-02T11:52:40.463Z,69.50
2019-02-02T11:57:44.547Z,66.13
2019-02-02T12:02:49.747Z,69.33
2019-02-02T12:07:54.007Z,68.50
2019-02-02T12:12:58.088Z,94.10
2019-02-02T12:18:02.191Z,71.13
2019-02-02T12:23:06.271Z,77.57
2019-02-02T12:28:10.348Z,74.85
2019-02-02T12:33:14.414Z,65.57
2019-02-02T12:38:18.499Z,62.23
2019-02-02T12:43:22.605Z,71.93
2019-02-02T12:48:26.639Z,79.23
2019-02-02T12:53:30.551Z,72.77
2019-02-02T12:58:34.712Z,69.53
2019-02-02T13:03:38.775Z,84.15
2019-02-02T13:08:42.877Z,91.73
2019-02-02T13:13:46.867Z,97.37
2019-02-02T13:18:50.956Z,80.57
2019-02-02T13:23:54.976Z,88.97
2019-02-02T13:28:59.044Z,86.43
2019-02-02T13:34:02.963Z,97.20
2019-02-02T13:39:10.491Z,84.37
2019-02-02T13:44:14.519Z,92.87
2019-02-02T13:49:18.456Z,96.05
2019-02-02T13:54:22.504Z,102.10
2019-02-02T13:59:26.571Z,61.30
2019-02-02T14:04:30.567Z,82.22
2019-02-02T14:09:34.644Z,103.57
2019-02-02T14:14:38.746Z,98.87
2019-02-02T14:19:42.687Z,84.27
2019-02-02T14:24:46.675Z,90.32
2019-02-02T14:29:50.672Z,95.20
2019-02-02T14:34:54.585Z,86.07
2019-02-02T14:39:58.795Z,71.40
2019-02-02T14:45:02.817Z,81.17
2019-02-02T14:50:09.543Z,103.10
2019-02-02T14:55:15.957Z,94.80
2019-02-02T15:00:22.788Z,98.57
2019-02-02T15:05:27.584Z,103.67
2019-02-02T15:10:31.658Z,97.93
2019-02-02T15:15:35.813Z,110.93
2019-02-02T15:20:40.048Z,90.50
2019-02-02T15:25:44.091Z,103.33
2019-02-02T15:30:48.114Z,90.00
2019-02-02T15:35:52.192Z,70.03
2019-02-02T15:40:59.159Z,86.78
2019-02-02T15:46:01.911Z,79.95
2019-02-02T15:51:06.123Z,102.87
2019-02-02T15:56:10.208Z,88.87
2019-02-02T16:01:14.315Z,76.20
2019-02-02T16:06:18.423Z,91.47
2019-02-02T16:11:22.357Z,87.80
2019-02-02T16:16:26.668Z,61.80
2019-02-02T16:21:30.780Z,57.97
2019-02-02T16:26:34.882Z,52.27
2019-02-02T16:31:38.867Z,56.57
2019-02-02T16:36:42.855Z,60.52
2019-02-02T16:41:46.921Z,48.13
2019-02-02T16:46:51.024Z,44.40
2019-02-02T16:51:55.013Z,41.63
2019-02-02T16:56:59.007Z,44.70
2019-02-02T17:02:03.227Z,50.43
2019-02-02T17:07:07.523Z,60.83
2019-02-02T17:12:11.523Z,43.07
2019-02-02T17:17:15.656Z,51.27
2019-02-02T17:22:19.944Z,61.45
2019-02-02T17:27:24.127Z,61.43
2019-02-02T17:32:28.202Z,73.30
2019-02-02T17:37:32.460Z,76.60
2019-02-02T17:42:37.228Z,69.80
2019-02-02T17:47:41.464Z,85.40
2019-02-02T17:52:45.700Z,81.53
2019-02-02T17:57:49.798Z,81.83
2019-02-02T18:02:54.472Z,96.83
2019-02-02T18:07:59.872Z,86.23
2019-02-02T18:13:04.660Z,99.00
2019-02-02T18:18:08.768Z,84.57
2019-02-02T18:23:12.883Z,81.67
2019-02-02T18:28:16.945Z,88.70
2019-02-02T18:33:20.951Z,92.27
2019-02-02T18:38:25.056Z,101.43
2019-02-02T18:43:28.969Z,90.37
2019-02-02T18:48:33.013Z,101.53
2019-02-02T18:53:37.227Z,89.83
2019-02-02T18:58:41.348Z,94.67
2019-02-02T19:03:45.553Z,92.77
2019-02-02T19:08:49.603Z,88.83
2019-02-02T19:13:53.695Z,79.87
2019-02-02T19:18:57.954Z,92.20
2019-02-02T19:24:02.056Z,104.30
2019-02-02T19:29:06.244Z,94.47
2019-02-02T19:34:12.744Z,112.77
2019-02-02T19:39:16.823Z,95.13
2019-02-02T19:44:20.728Z,89.40
2019-02-02T19:49:24.759Z,109.70
2019-02-02T19:54:28.819Z,108.40
2019-02-02T19:59:32.863Z,110.87
2019-02-02T20:04:36.780Z,109.03
2019-02-02T20:09:40.893Z,110.77
2019-02-02T20:14:44.884Z,103.93
2019-02-02T20:19:48.868Z,119.77
2019-02-02T20:24:52.853Z,114.13
2019-02-02T20:29:56.901Z,114.00
2019-02-02T20:35:00.951Z,121.30
2019-02-02T20:40:05.991Z,188.33
2019-02-02T20:45:12.470Z,155.77
2019-02-02T20:50:17.724Z,192.87
2019-02-02T20:55:24.302Z,176.33
2019-02-02T21:00:28.903Z,181.73
2019-02-02T21:05:32.942Z,167.53
2019-02-02T21:10:37.300Z,159.10
2019-02-02T21:15:41.411Z,162.60
2019-02-02T21:20:45.456Z,152.87
2019-02-02T21:25:49.482Z,160.40
2019-02-02T21:30:53.440Z,153.57
2019-02-02T21:36:03.963Z,153.60
2019-02-02T21:41:05.132Z,150.67
2019-02-02T21:46:09.200Z,163.07
2019-02-02T21:51:13.245Z,160.77
2019-02-02T21:56:17.226Z,152.63
2019-02-02T22:01:24.085Z,157.33
2019-02-02T22:06:27.109Z,172.23
2019-02-02T22:11:31.172Z,167.07
2019-02-02T22:16:35.256Z,161.80
2019-02-02T22:21:39.232Z,159.07
2019-02-02T22:26:43.274Z,155.03
2019-02-02T22:31:47.370Z,176.10
2019-02-02T22:36:51.356Z,160.77
2019-02-02T22:41:55.323Z,173.97
2019-02-02T22:46:59.405Z,164.40
2019-02-02T22:52:03.460Z,167.77
2019-02-02T22:57:07.529Z,161.47
2019-02-02T23:02:16.472Z,159.00
2019-02-02T23:07:51.795Z,158.37
2019-02-02T23:13:44.804Z,174.70
2019-02-02T23:18:48.867Z,161.00
2019-02-02T23:23:53.003Z,147.93
2019-02-02T23:28:57.099Z,156.30
2019-02-02T23:34:01.547Z,154.53
2019-02-02T23:39:08.504Z,155.07
2019-02-02T23:44:12.919Z,159.77
2019-02-02T23:49:16.980Z,153.23
2019-02-02T23:54:21.071Z,157.00
2019-02-02T23:59:25.137Z,158.67
